createdAt,value
2022-12-18T00:01:21.255Z,5.70
2022-12-18T00:03:48.965Z,5.60
2022-12-18T00:06:16.924Z,7.18
2022-12-18T00:08:45.340Z,8.48
2022-12-18T00:11:21.251Z,9.57
2022-12-18T00:13:48.988Z,11.23
2022-12-18T00:16:21.880Z,11.10
2022-12-18T00:18:54.351Z,10.30
2022-12-18T00:21:21.881Z,15.32
2022-12-18T00:23:49.857Z,9.07
2022-12-18T00:26:37.766Z,13.95
2022-12-18T00:29:08.648Z,11.48
2022-12-18T00:31:36.656Z,10.50
2022-12-18T00:34:03.653Z,10.25
2022-12-18T00:36:35.458Z,11.98
2022-12-18T00:39:04.631Z,10.32
2022-12-18T00:41:49.884Z,9.70
2022-12-18T00:44:19.571Z,8.85
2022-12-18T00:46:48.041Z,11.40
2022-12-18T00:49:15.992Z,12.30
2022-12-18T00:51:42.913Z,9.52
2022-12-18T00:54:09.891Z,7.30
2022-12-18T00:56:48.033Z,6.20
2022-12-18T00:59:16.276Z,7.32
2022-12-18T01:01:43.627Z,7.20
2022-12-18T01:04:13.287Z,8.25
2022-12-18T01:06:40.080Z,6.65
2022-12-18T01:09:07.105Z,7.30
2022-12-18T01:11:33.968Z,7.90
2022-12-18T01:14:01.135Z,6.78
2022-12-18T01:16:28.494Z,6.00
2022-12-18T01:18:56.128Z,6.95
2022-12-18T01:21:24.541Z,6.72
2022-12-18T01:23:58.064Z,7.63
2022-12-18T01:26:25.852Z,5.18
2022-12-18T01:28:54.752Z,13.73
2022-12-18T01:31:27.557Z,16.75
2022-12-18T01:33:54.974Z,12.63
2022-12-18T01:36:29.957Z,20.95
2022-12-18T01:38:57.608Z,18.70
2022-12-18T01:41:26.573Z,17.27
2022-12-18T01:43:59.687Z,17.60
2022-12-18T01:46:28.164Z,22.00
2022-12-18T01:48:58.877Z,17.20
2022-12-18T01:51:27.824Z,16.92
2022-12-18T01:53:54.738Z,14.20
2022-12-18T01:56:23.184Z,15.13
2022-12-18T01:59:02.075Z,14.30
2022-12-18T02:01:31.190Z,14.80
2022-12-18T02:04:22.827Z,11.30
2022-12-18T02:06:56.492Z,11.75
2022-12-18T02:09:35.397Z,8.88
2022-12-18T02:12:22.475Z,10.27
2022-12-18T02:14:58.421Z,7.60
2022-12-18T02:17:33.777Z,10.77
2022-12-18T02:20:03.980Z,11.60
2022-12-18T02:23:09.518Z,14.68
2022-12-18T02:26:28.024Z,11.77
2022-12-18T02:29:01.888Z,9.60
2022-12-18T02:31:36.500Z,13.25
2022-12-18T02:34:06.698Z,10.80
2022-12-18T02:36:34.864Z,8.75
2022-12-18T02:39:03.657Z,9.30
2022-12-18T02:41:31.650Z,6.97
2022-12-18T02:44:02.683Z,7.30
2022-12-18T02:46:36.523Z,5.85
2022-12-18T02:49:40.435Z,9.82
2022-12-18T02:52:33.124Z,8.43
2022-12-18T02:55:08.946Z,6.82
2022-12-18T02:58:01.735Z,6.57
2022-12-18T03:00:33.036Z,9.00
2022-12-18T03:03:17.649Z,13.38
2022-12-18T03:05:51.742Z,9.57
2022-12-18T03:08:30.077Z,8.32
2022-12-18T03:11:13.132Z,7.60
2022-12-18T03:13:48.799Z,7.32
2022-12-18T03:16:23.417Z,7.55
2022-12-18T03:19:11.776Z,5.38
2022-12-18T03:21:46.055Z,8.98
2022-12-18T03:24:13.017Z,14.43
2022-12-18T03:26:46.957Z,9.55
2022-12-18T03:29:28.190Z,11.88
2022-12-18T03:32:04.200Z,10.18
2022-12-18T03:34:34.662Z,10.82
2022-12-18T03:37:02.869Z,9.93
2022-12-18T03:39:29.695Z,9.48
2022-12-18T03:42:16.932Z,7.75
2022-12-18T03:44:55.320Z,6.22
2022-12-18T03:48:06.776Z,8.30
2022-12-18T03:50:49.832Z,9.18
2022-12-18T03:53:28.647Z,12.07
2022-12-18T03:55:58.138Z,13.23
2022-12-18T03:58:27.475Z,15.70
2022-12-18T04:00:57.837Z,12.85
2022-12-18T04:03:26.931Z,16.52
2022-12-18T04:05:55.937Z,13.73
2022-12-18T04:08:24.277Z,17.88
2022-12-18T04:10:51.047Z,13.27
2022-12-18T04:13:36.254Z,10.15
2022-12-18T04:16:03.746Z,9.05
2022-12-18T04:18:31.505Z,11.57
2022-12-18T04:20:58.337Z,9.52
2022-12-18T04:23:25.121Z,9.07
2022-12-18T04:25:51.936Z,9.15
2022-12-18T04:28:18.936Z,9.00
2022-12-18T04:30:49.304Z,7.43
2022-12-18T04:33:16.318Z,10.43
2022-12-18T04:35:43.806Z,10.02
2022-12-18T04:38:11.005Z,10.00
2022-12-18T04:40:38.935Z,12.45
2022-12-18T04:43:06.497Z,13.13
2022-12-18T04:45:34.346Z,14.52
2022-12-18T04:48:02.551Z,11.15
2022-12-18T04:50:29.699Z,12.52
2022-12-18T04:52:56.660Z,14.52
2022-12-18T04:55:26.785Z,9.48
2022-12-18T04:57:53.880Z,9.20
2022-12-18T05:00:21.413Z,7.40
2022-12-18T05:02:48.292Z,8.52
2022-12-18T05:05:15.673Z,8.02
2022-12-18T05:07:42.594Z,8.27
2022-12-18T05:10:09.797Z,7.47
2022-12-18T05:12:57.529Z,10.45
2022-12-18T05:15:25.057Z,11.20
2022-12-18T05:17:51.858Z,9.40
2022-12-18T05:20:19.307Z,12.52
2022-12-18T05:22:46.088Z,9.38
2022-12-18T05:25:12.977Z,7.35
2022-12-18T05:27:39.798Z,8.93
2022-12-18T05:30:07.304Z,6.38
2022-12-18T05:32:34.156Z,13.57
2022-12-18T05:38:42.093Z,16.17
2022-12-18T05:41:10.145Z,12.57
2022-12-18T05:43:39.169Z,10.93
2022-12-18T05:46:08.603Z,9.85
2022-12-18T05:48:35.680Z,13.15
2022-12-18T05:51:11.424Z,11.55
2022-12-18T05:53:38.691Z,12.25
2022-12-18T05:56:11.348Z,8.93
2022-12-18T05:58:38.761Z,10.80
2022-12-18T06:01:15.040Z,10.15
2022-12-18T06:03:42.490Z,6.85
2022-12-18T06:06:21.061Z,9.20
2022-12-18T06:08:48.301Z,8.90
2022-12-18T06:11:19.637Z,8.93
2022-12-18T06:13:47.640Z,7.45
2022-12-18T06:16:16.236Z,5.68
2022-12-18T06:18:43.041Z,8.05
2022-12-18T06:21:10.124Z,7.25
2022-12-18T06:23:37.418Z,10.30
2022-12-18T06:26:09.264Z,7.75
2022-12-18T06:28:36.352Z,8.80
2022-12-18T06:31:04.676Z,8.82
2022-12-18T06:33:32.370Z,8.80
2022-12-18T06:36:11.417Z,12.35
2022-12-18T06:38:40.562Z,14.23
2022-12-18T06:41:09.294Z,12.85
2022-12-18T06:43:36.136Z,11.82
2022-12-18T06:46:04.296Z,14.10
2022-12-18T06:48:31.706Z,12.23
2022-12-18T06:50:58.663Z,10.77
2022-12-18T06:53:25.615Z,9.77
2022-12-18T06:55:52.469Z,8.32
2022-12-18T06:58:19.665Z,10.23
2022-12-18T07:00:46.571Z,9.02
2022-12-18T07:03:14.014Z,7.93
2022-12-18T07:05:41.935Z,8.18
2022-12-18T07:08:08.921Z,8.15
2022-12-18T07:10:47.496Z,9.23
2022-12-18T07:13:15.095Z,8.13
2022-12-18T07:15:42.499Z,10.05
2022-12-18T07:18:10.393Z,8.68
2022-12-18T07:20:37.299Z,6.20
2022-12-18T07:23:06.204Z,7.53
2022-12-18T07:25:36.969Z,7.72
2022-12-18T07:28:04.978Z,7.88
2022-12-18T07:30:31.772Z,8.15
2022-12-18T07:32:58.712Z,6.32
2022-12-18T07:35:25.644Z,6.22
2022-12-18T07:37:52.667Z,9.20
2022-12-18T07:40:19.620Z,7.97
2022-12-18T07:42:46.497Z,7.05
2022-12-18T07:45:13.239Z,9.38
2022-12-18T07:47:42.244Z,8.25
2022-12-18T07:50:09.454Z,8.23
2022-12-18T07:52:36.246Z,10.00
2022-12-18T07:55:03.982Z,6.00
2022-12-18T08:00:17.879Z,5.60
2022-12-18T08:02:44.823Z,7.85
2022-12-18T08:05:11.773Z,8.18
2022-12-18T08:07:38.807Z,8.85
2022-12-18T08:10:06.317Z,6.38
2022-12-18T08:12:33.201Z,7.22
2022-12-18T08:15:00.250Z,7.18
2022-12-18T08:17:27.075Z,7.40
2022-12-18T08:19:53.959Z,5.57
2022-12-18T08:22:20.712Z,6.72
2022-12-18T08:24:47.514Z,8.75
2022-12-18T08:27:28.802Z,6.53
2022-12-18T08:29:56.905Z,6.65
2022-12-18T08:32:24.415Z,6.15
2022-12-18T08:34:51.221Z,6.80
2022-12-18T08:37:17.987Z,7.47
2022-12-18T08:39:44.913Z,7.40
2022-12-18T08:42:30.613Z,8.35
2022-12-18T08:44:57.887Z,7.80
2022-12-18T08:47:24.731Z,5.93
2022-12-18T08:49:51.539Z,9.00
2022-12-18T08:52:18.362Z,9.02
2022-12-18T08:54:45.199Z,8.52
2022-12-18T08:57:11.984Z,9.98
2022-12-18T08:59:38.876Z,9.15
2022-12-18T09:02:05.900Z,9.02
2022-12-18T09:04:32.861Z,10.20
2022-12-18T09:06:59.817Z,7.03
2022-12-18T09:09:26.690Z,9.15
2022-12-18T09:11:53.447Z,10.23
2022-12-18T09:14:20.252Z,8.48
2022-12-18T09:16:47.118Z,9.13
2022-12-18T09:19:14.420Z,10.02
2022-12-18T09:21:46.130Z,9.15
2022-12-18T09:24:15.887Z,10.48
2022-12-18T09:26:47.172Z,14.98
2022-12-18T09:29:15.801Z,15.85
2022-12-18T09:31:43.603Z,15.88
2022-12-18T09:34:10.817Z,13.93
2022-12-18T09:36:37.793Z,16.33
2022-12-18T09:39:08.469Z,13.48
2022-12-18T09:41:51.842Z,13.85
2022-12-18T09:44:22.527Z,13.38
2022-12-18T09:47:04.353Z,18.65
2022-12-18T09:49:35.560Z,14.55
2022-12-18T09:52:28.931Z,16.63
2022-12-18T09:55:21.684Z,17.05
2022-12-18T09:57:57.928Z,21.80
2022-12-18T10:00:26.144Z,18.25
2022-12-18T10:02:57.034Z,19.75
2022-12-18T10:05:59.154Z,28.92
2022-12-18T10:08:48.045Z,26.40
2022-12-18T10:11:36.126Z,18.85
2022-12-18T10:14:16.595Z,22.05
2022-12-18T10:17:21.878Z,22.77
2022-12-18T10:20:03.179Z,26.23
2022-12-18T10:22:51.133Z,26.88
2022-12-18T10:26:01.103Z,23.45
2022-12-18T10:28:30.200Z,20.05
2022-12-18T10:30:57.088Z,23.63
2022-12-18T10:33:25.728Z,22.80
2022-12-18T10:35:52.815Z,28.30
2022-12-18T10:38:20.428Z,29.98
2022-12-18T10:40:52.932Z,26.13
2022-12-18T10:43:39.705Z,22.33
2022-12-18T10:46:14.111Z,23.08
2022-12-18T10:48:50.149Z,24.73
2022-12-18T10:51:34.525Z,20.70
2022-12-18T10:54:22.498Z,20.05
2022-12-18T10:56:49.659Z,16.35
2022-12-18T10:59:18.957Z,16.25
2022-12-18T11:01:57.603Z,16.65
2022-12-18T11:04:29.095Z,19.85
2022-12-18T11:06:57.792Z,21.52
2022-12-18T11:09:30.004Z,15.60
2022-12-18T11:12:00.348Z,14.95
2022-12-18T11:14:29.704Z,17.42
2022-12-18T11:17:24.233Z,17.55
2022-12-18T11:19:45.161Z,18.10
2022-12-18T11:22:30.606Z,18.55
2022-12-18T11:27:53.024Z,20.58
2022-12-18T11:30:25.732Z,16.58
2022-12-18T11:33:02.983Z,25.48
2022-12-18T11:35:52.782Z,23.65
2022-12-18T11:38:26.250Z,24.10
2022-12-18T11:41:09.862Z,22.17
2022-12-18T11:43:49.600Z,22.75
2022-12-18T11:46:25.157Z,23.40
2022-12-18T11:49:14.122Z,22.27
2022-12-18T11:51:56.485Z,26.77
2022-12-18T11:54:23.306Z,22.38
2022-12-18T11:57:03.429Z,25.00
2022-12-18T12:00:09.053Z,26.23
2022-12-18T12:02:50.835Z,22.92
2022-12-18T12:05:42.955Z,21.35
2022-12-18T12:08:09.769Z,18.95
2022-12-18T12:10:54.607Z,17.00
2022-12-18T12:13:48.276Z,16.23
2022-12-18T12:16:22.487Z,15.35
2022-12-18T12:19:24.608Z,20.20
2022-12-18T12:22:17.298Z,16.45
2022-12-18T12:24:55.141Z,12.57
2022-12-18T12:27:53.976Z,17.05
2022-12-18T12:30:45.590Z,17.48
2022-12-18T12:33:57.488Z,19.42
2022-12-18T12:36:39.743Z,18.67
2022-12-18T12:39:13.658Z,22.55
2022-12-18T12:42:02.214Z,28.60
2022-12-18T12:44:35.704Z,22.65
2022-12-18T12:47:14.967Z,21.95
2022-12-18T12:49:49.975Z,19.85
2022-12-18T12:52:33.488Z,22.85
2022-12-18T12:55:03.267Z,23.55
2022-12-18T12:57:33.022Z,22.35
2022-12-18T13:00:04.650Z,23.10
2022-12-18T13:02:55.885Z,24.33
2022-12-18T13:05:35.177Z,19.25
2022-12-18T13:08:10.767Z,20.92
2022-12-18T13:10:40.138Z,21.73
2022-12-18T13:13:11.039Z,21.48
2022-12-18T13:15:39.777Z,20.90
2022-12-18T13:18:10.152Z,16.50
2022-12-18T13:20:50.728Z,17.08
2022-12-18T13:23:29.573Z,21.33
2022-12-18T13:25:59.813Z,22.17
2022-12-18T13:28:45.704Z,19.38
2022-12-18T13:31:32.971Z,17.45
2022-12-18T13:34:29.181Z,19.10
2022-12-18T13:37:17.861Z,16.80
2022-12-18T13:39:45.128Z,19.15
2022-12-18T13:42:32.956Z,19.95
2022-12-18T13:45:00.312Z,21.00
2022-12-18T13:47:30.183Z,21.65
2022-12-18T13:49:58.160Z,20.85
2022-12-18T13:52:34.711Z,20.38
2022-12-18T13:55:06.219Z,18.23
2022-12-18T13:57:36.032Z,17.45
2022-12-18T14:00:30.295Z,15.45
2022-12-18T14:02:59.325Z,14.07
2022-12-18T14:05:32.382Z,13.23
2022-12-18T14:08:05.720Z,16.60
2022-12-18T14:10:47.764Z,15.35
2022-12-18T14:13:28.905Z,14.30
2022-12-18T14:15:57.339Z,14.52
2022-12-18T14:18:34.476Z,14.60
2022-12-18T14:21:03.739Z,16.00
2022-12-18T14:23:40.547Z,15.32
2022-12-18T14:26:31.329Z,16.10
2022-12-18T14:29:02.083Z,18.13
2022-12-18T14:31:31.286Z,20.83
2022-12-18T14:33:58.193Z,17.75
2022-12-18T14:36:28.010Z,20.95
2022-12-18T14:38:59.544Z,21.63
2022-12-18T14:41:27.240Z,18.33
2022-12-18T14:43:55.864Z,19.27
2022-12-18T14:46:39.400Z,17.02
2022-12-18T14:49:33.472Z,20.42
2022-12-18T14:52:02.878Z,19.35
2022-12-18T14:54:32.234Z,18.75
2022-12-18T14:57:03.960Z,16.95
2022-12-18T14:59:32.516Z,19.38
2022-12-18T15:02:14.215Z,16.58
2022-12-18T15:04:44.212Z,17.30
2022-12-18T15:07:21.909Z,15.95
2022-12-18T15:10:08.963Z,17.13
2022-12-18T15:13:02.525Z,17.15
2022-12-18T15:15:38.363Z,15.77
2022-12-18T15:18:09.861Z,13.52
2022-12-18T15:20:56.200Z,12.68
2022-12-18T15:24:00.515Z,15.18
2022-12-18T15:26:38.053Z,15.10
2022-12-18T15:29:04.884Z,15.68
2022-12-18T15:31:32.672Z,14.82
2022-12-18T15:34:00.641Z,19.33
2022-12-18T15:36:31.353Z,18.00
2022-12-18T15:39:04.621Z,22.23
2022-12-18T15:41:36.021Z,20.25
2022-12-18T15:44:11.692Z,21.67
2022-12-18T15:46:38.533Z,24.27
2022-12-18T15:49:06.323Z,23.40
2022-12-18T15:51:38.118Z,18.92
2022-12-18T15:54:07.854Z,16.42
2022-12-18T15:56:53.545Z,18.75
2022-12-18T15:59:21.816Z,12.98
2022-12-18T16:01:50.827Z,15.68
2022-12-18T16:04:21.533Z,13.93
2022-12-18T16:07:13.966Z,13.70
2022-12-18T16:09:36.500Z,12.75
2022-12-18T16:12:03.739Z,13.15
2022-12-18T16:14:32.130Z,9.43
2022-12-18T16:17:06.297Z,12.82
2022-12-18T16:19:33.201Z,12.43
2022-12-18T16:22:01.818Z,12.32
2022-12-18T16:24:31.140Z,11.85
2022-12-18T16:27:00.445Z,10.00
2022-12-18T16:29:29.546Z,12.82
2022-12-18T16:31:57.941Z,16.80
2022-12-18T16:34:29.572Z,12.27
2022-12-18T16:37:05.458Z,12.48
2022-12-18T16:39:35.469Z,12.77
2022-12-18T16:42:05.879Z,18.67
2022-12-18T16:44:36.521Z,13.43
2022-12-18T16:47:05.031Z,11.63
2022-12-18T16:49:33.575Z,11.65
2022-12-18T16:52:00.464Z,11.68
2022-12-18T16:54:30.395Z,14.30
2022-12-18T16:56:58.121Z,14.23
2022-12-18T16:59:26.578Z,15.82
2022-12-18T17:01:53.975Z,13.32
2022-12-18T17:04:21.035Z,10.13
2022-12-18T17:06:52.113Z,14.38
2022-12-18T17:09:29.592Z,12.30
2022-12-18T17:11:56.398Z,8.52
2022-12-18T17:14:24.746Z,10.98
2022-12-18T17:17:19.369Z,11.60
2022-12-18T17:19:39.896Z,13.65
2022-12-18T17:22:08.289Z,9.02
2022-12-18T17:24:35.774Z,11.10
2022-12-18T17:27:03.605Z,11.50
2022-12-18T17:29:30.949Z,10.18
2022-12-18T17:31:59.285Z,12.75
2022-12-18T17:34:27.601Z,12.30
2022-12-18T17:36:54.735Z,13.13
2022-12-18T17:39:21.969Z,12.10
2022-12-18T17:41:49.546Z,10.98
2022-12-18T17:44:17.151Z,10.65
2022-12-18T17:46:44.436Z,9.15
2022-12-18T17:49:11.683Z,9.73
2022-12-18T17:51:38.736Z,9.32
2022-12-18T17:54:06.000Z,8.60
2022-12-18T17:56:33.180Z,8.38
2022-12-18T17:59:00.429Z,11.95
2022-12-18T18:01:27.654Z,10.38
2022-12-18T18:03:57.779Z,9.60
2022-12-18T18:06:24.819Z,7.25
2022-12-18T18:08:52.006Z,8.07
2022-12-18T18:11:44.618Z,15.15
2022-12-18T18:14:16.307Z,11.93
2022-12-18T18:16:45.902Z,12.10
2022-12-18T18:19:16.525Z,9.98
2022-12-18T18:21:45.318Z,12.23
2022-12-18T18:24:15.432Z,11.00
2022-12-18T18:26:42.469Z,8.95
2022-12-18T18:29:16.444Z,8.82
2022-12-18T18:31:44.272Z,9.85
2022-12-18T18:34:16.668Z,8.25
2022-12-18T18:36:43.954Z,9.82
2022-12-18T18:39:10.797Z,9.65
2022-12-18T18:41:37.805Z,10.13
2022-12-18T18:44:05.041Z,8.32
2022-12-18T18:46:31.879Z,8.73
2022-12-18T18:48:59.115Z,8.63
2022-12-18T18:51:30.030Z,11.02
2022-12-18T18:54:00.176Z,9.70
2022-12-18T18:56:56.109Z,9.43
2022-12-18T18:59:14.625Z,11.90
2022-12-18T19:01:41.656Z,10.48
2022-12-18T19:04:08.839Z,9.88
2022-12-18T19:06:35.842Z,12.40
2022-12-18T19:09:05.022Z,11.20
2022-12-18T19:11:51.207Z,10.40
2022-12-18T19:14:18.398Z,10.55
2022-12-18T19:16:45.748Z,9.90
2022-12-18T19:19:13.577Z,11.50
2022-12-18T19:21:40.597Z,11.32
2022-12-18T19:24:07.828Z,11.20
2022-12-18T19:26:36.392Z,9.48
2022-12-18T19:29:08.887Z,11.73
2022-12-18T19:31:37.178Z,7.50
2022-12-18T19:34:06.731Z,12.00
2022-12-18T19:36:35.522Z,12.05
2022-12-18T19:39:07.181Z,13.07
2022-12-18T19:41:34.084Z,12.65
2022-12-18T19:44:07.410Z,11.93
2022-12-18T19:46:35.597Z,11.23
2022-12-18T19:49:02.729Z,10.82
2022-12-18T19:51:31.396Z,11.55
2022-12-18T19:54:01.438Z,13.15
2022-12-18T19:56:32.288Z,11.90
2022-12-18T19:58:59.711Z,8.77
2022-12-18T20:01:29.127Z,10.60
2022-12-18T20:03:57.474Z,11.52
2022-12-18T20:06:25.925Z,11.73
2022-12-18T20:08:55.768Z,14.13
2022-12-18T20:11:27.420Z,14.15
2022-12-18T20:13:54.236Z,14.63
2022-12-18T20:16:21.104Z,13.38
2022-12-18T20:18:49.463Z,9.80
2022-12-18T20:21:16.571Z,11.07
2022-12-18T20:23:43.972Z,8.52
2022-12-18T20:26:11.400Z,10.77
2022-12-18T20:28:40.040Z,10.00
2022-12-18T20:31:10.421Z,10.75
2022-12-18T20:33:39.466Z,11.82
2022-12-18T20:36:11.335Z,10.70
2022-12-18T20:38:39.592Z,10.50
2022-12-18T20:41:12.658Z,11.88
2022-12-18T20:43:39.901Z,16.33
2022-12-18T20:46:10.677Z,11.52
2022-12-18T20:48:38.519Z,10.63
2022-12-18T20:51:11.574Z,11.05
2022-12-18T20:53:41.695Z,16.02
2022-12-18T20:56:21.602Z,17.55
2022-12-18T20:58:49.875Z,15.60
2022-12-18T21:01:19.805Z,14.10
2022-12-18T21:03:47.512Z,15.65
2022-12-18T21:06:16.282Z,17.83
2022-12-18T21:08:43.472Z,13.65
2022-12-18T21:11:35.909Z,13.05
2022-12-18T21:14:04.304Z,11.82
2022-12-18T21:16:31.377Z,12.38
2022-12-18T21:18:59.174Z,11.55
2022-12-18T21:21:27.120Z,16.00
2022-12-18T21:23:54.316Z,12.65
2022-12-18T21:26:23.993Z,14.02
2022-12-18T21:28:59.651Z,12.18
2022-12-18T21:31:29.609Z,11.60
2022-12-18T21:34:02.383Z,11.48
2022-12-18T21:36:30.574Z,12.23
2022-12-18T21:38:59.141Z,13.73
2022-12-18T21:41:46.365Z,12.82
2022-12-18T21:44:15.748Z,12.57
2022-12-18T21:46:48.867Z,11.13
2022-12-18T21:49:23.220Z,8.30
2022-12-18T21:51:58.218Z,8.68
2022-12-18T21:54:26.800Z,9.48
2022-12-18T21:56:57.602Z,8.20
2022-12-18T21:59:34.730Z,9.60
2022-12-18T22:02:04.734Z,11.07
2022-12-18T22:04:31.835Z,9.90
2022-12-18T22:06:59.523Z,11.27
2022-12-18T22:09:26.562Z,10.15
2022-12-18T22:11:53.618Z,10.48
2022-12-18T22:14:21.941Z,10.43
2022-12-18T22:16:49.393Z,10.30
2022-12-18T22:19:17.109Z,9.23
2022-12-18T22:21:46.711Z,9.85
2022-12-18T22:24:16.454Z,8.90
2022-12-18T22:26:43.974Z,10.45
2022-12-18T22:29:34.402Z,7.13
2022-12-18T22:32:02.234Z,9.23
2022-12-18T22:34:29.257Z,9.02
2022-12-18T22:36:56.902Z,9.57
2022-12-18T22:39:26.192Z,8.02
2022-12-18T22:41:56.182Z,9.93
2022-12-18T22:44:23.394Z,8.52
2022-12-18T22:46:59.673Z,8.02
2022-12-18T22:49:34.828Z,7.80
2022-12-18T22:52:03.186Z,9.35
2022-12-18T22:54:30.027Z,6.47
2022-12-18T22:56:57.540Z,7.63
2022-12-18T22:59:24.828Z,9.10
2022-12-18T23:01:52.982Z,7.82
2022-12-18T23:04:31.991Z,10.82
2022-12-18T23:07:05.321Z,16.95
2022-12-18T23:09:33.150Z,11.55
2022-12-18T23:11:59.979Z,10.80
2022-12-18T23:14:27.086Z,15.23
2022-12-18T23:16:53.875Z,13.27
2022-12-18T23:19:21.156Z,13.70
2022-12-18T23:21:51.288Z,16.98
2022-12-18T23:24:18.424Z,15.68
2022-12-18T23:26:45.282Z,16.38
2022-12-18T23:29:12.129Z,23.73
2022-12-18T23:31:39.881Z,20.38
2022-12-18T23:34:07.269Z,18.65
2022-12-18T23:36:45.586Z,18.27
2022-12-18T23:39:25.807Z,15.60
2022-12-18T23:41:59.563Z,12.77
2022-12-18T23:44:26.737Z,13.88
2022-12-18T23:46:54.710Z,13.40
2022-12-18T23:49:21.683Z,14.70
2022-12-18T23:51:48.876Z,18.75
2022-12-18T23:54:15.727Z,15.43
2022-12-18T23:56:42.670Z,14.18
2022-12-18T23:59:09.725Z,13.10
